createdAt,value
2019-03-17T00:01:40.710Z,18.70
2019-03-17T00:04:09.756Z,18.10
2019-03-17T00:06:38.546Z,17.10
2019-03-17T00:09:08.129Z,17.90
2019-03-17T00:11:36.953Z,17.90
2019-03-17T00:14:10.071Z,19.07
2019-03-17T00:16:38.843Z,18.77
2019-03-17T00:19:07.702Z,17.57
2019-03-17T00:21:37.833Z,18.10
2019-03-17T00:24:06.775Z,17.80
2019-03-17T00:26:35.628Z,23.97
2019-03-17T00:29:04.522Z,18.50
2019-03-17T00:31:33.330Z,17.07
2019-03-17T00:34:02.234Z,17.97
2019-03-17T00:36:31.117Z,17.00
2019-03-17T00:39:00.098Z,17.10
2019-03-17T00:41:31.612Z,17.40
2019-03-17T00:44:00.036Z,16.67
2019-03-17T00:46:29.004Z,16.53
2019-03-17T00:48:57.791Z,16.97
2019-03-17T00:51:26.604Z,16.43
2019-03-17T00:53:56.004Z,16.63
2019-03-17T00:56:24.886Z,16.50
2019-03-17T00:58:53.692Z,16.90
2019-03-17T01:01:22.468Z,16.67
2019-03-17T01:03:51.290Z,16.40
2019-03-17T01:06:20.428Z,15.80
2019-03-17T01:08:49.390Z,15.93
2019-03-17T01:11:18.492Z,15.37
2019-03-17T01:13:47.703Z,16.00
2019-03-17T01:16:16.507Z,15.13
2019-03-17T01:18:45.422Z,15.53
2019-03-17T01:21:14.503Z,15.53
2019-03-17T01:23:43.284Z,14.60
2019-03-17T01:26:12.115Z,14.93
2019-03-17T01:28:40.913Z,13.53
2019-03-17T01:31:09.833Z,14.83
2019-03-17T01:33:38.687Z,13.90
2019-03-17T01:36:07.575Z,13.80
2019-03-17T01:38:36.330Z,13.80
2019-03-17T01:41:05.796Z,12.63
2019-03-17T01:43:34.551Z,13.90
2019-03-17T01:46:03.882Z,13.40
2019-03-17T01:48:32.884Z,13.77
2019-03-17T01:51:01.600Z,14.10
2019-03-17T01:53:30.539Z,13.27
2019-03-17T01:55:59.333Z,13.00
2019-03-17T01:58:28.639Z,13.50
2019-03-17T02:00:57.504Z,13.43
2019-03-17T02:03:26.506Z,12.70
2019-03-17T02:05:55.299Z,12.03
2019-03-17T02:08:24.227Z,12.53
2019-03-17T02:10:53.053Z,12.93
2019-03-17T02:13:22.251Z,13.30
2019-03-17T02:15:51.813Z,11.57
2019-03-17T02:18:20.813Z,12.60
2019-03-17T02:20:49.517Z,12.80
2019-03-17T02:23:18.461Z,12.73
2019-03-17T02:25:47.239Z,12.83
2019-03-17T02:28:16.134Z,12.37
2019-03-17T02:30:45.257Z,12.10
2019-03-17T02:33:14.235Z,12.10
2019-03-17T02:35:43.260Z,10.70
2019-03-17T02:38:12.122Z,10.63
2019-03-17T02:40:41.160Z,10.37
2019-03-17T02:43:10.139Z,10.43
2019-03-17T02:45:39.023Z,9.97
2019-03-17T02:48:07.931Z,10.43
2019-03-17T02:50:36.918Z,10.37
2019-03-17T02:53:05.909Z,10.10
2019-03-17T02:55:34.741Z,10.33
2019-03-17T02:58:03.985Z,9.13
2019-03-17T03:00:32.817Z,9.70
2019-03-17T03:03:03.694Z,9.50
2019-03-17T03:05:53.586Z,8.40
2019-03-17T03:08:08.227Z,7.90
2019-03-17T03:10:38.291Z,8.90
2019-03-17T03:13:07.100Z,8.00
2019-03-17T03:15:36.483Z,8.20
2019-03-17T03:18:06.231Z,7.87
2019-03-17T03:20:36.415Z,8.10
2019-03-17T03:23:05.279Z,7.30
2019-03-17T03:25:34.211Z,7.70
2019-03-17T03:28:04.454Z,7.80
2019-03-17T03:30:36.444Z,7.27
2019-03-17T03:33:05.420Z,8.38
2019-03-17T03:35:34.468Z,7.00
2019-03-17T03:38:03.673Z,7.23
2019-03-17T03:40:32.514Z,7.37
2019-03-17T03:43:01.812Z,6.60
2019-03-17T03:45:31.082Z,7.10
2019-03-17T03:48:00.004Z,7.83
2019-03-17T03:50:28.899Z,7.80
2019-03-17T03:52:57.958Z,8.00
2019-03-17T03:55:26.987Z,7.60
2019-03-17T03:57:55.908Z,7.77
2019-03-17T04:00:25.492Z,7.00
2019-03-17T04:02:54.199Z,8.27
2019-03-17T04:05:23.314Z,8.00
2019-03-17T04:07:52.131Z,7.90
2019-03-17T04:10:20.960Z,7.33
2019-03-17T04:12:49.794Z,7.50
2019-03-17T04:15:18.789Z,7.33
2019-03-17T04:17:47.601Z,7.87
2019-03-17T04:20:16.826Z,7.17
2019-03-17T04:22:45.603Z,8.07
2019-03-17T04:25:17.324Z,7.50
2019-03-17T04:27:46.135Z,7.17
2019-03-17T04:30:16.073Z,6.77
2019-03-17T04:32:45.203Z,6.87
2019-03-17T04:35:24.117Z,6.30
2019-03-17T04:37:52.971Z,7.10
2019-03-17T04:40:21.878Z,7.10
2019-03-17T04:42:50.699Z,7.55
2019-03-17T04:45:19.837Z,7.40
2019-03-17T04:47:48.751Z,6.55
2019-03-17T04:50:17.653Z,6.62
2019-03-17T04:52:46.999Z,7.40
2019-03-17T04:55:16.906Z,7.27
2019-03-17T04:57:45.816Z,6.00
2019-03-17T05:00:15.763Z,6.40
2019-03-17T05:02:44.939Z,6.75
2019-03-17T05:05:13.967Z,5.90
2019-03-17T05:07:48.883Z,6.70
2019-03-17T05:10:17.727Z,7.22
2019-03-17T05:12:46.604Z,6.62
2019-03-17T05:15:15.581Z,7.20
2019-03-17T05:17:44.547Z,7.53
2019-03-17T05:20:13.433Z,6.87
2019-03-17T05:22:43.219Z,7.00
2019-03-17T05:25:12.163Z,6.50
2019-03-17T05:27:41.329Z,7.17
2019-03-17T05:30:10.602Z,6.95
2019-03-17T05:32:39.373Z,7.20
2019-03-17T05:35:08.659Z,7.90
2019-03-17T05:37:38.692Z,7.10
2019-03-17T05:40:07.660Z,7.65
2019-03-17T05:42:36.743Z,7.35
2019-03-17T05:45:06.046Z,7.72
2019-03-17T05:47:35.008Z,7.42
2019-03-17T05:50:04.787Z,8.63
2019-03-17T05:52:33.660Z,9.37
2019-03-17T05:55:02.398Z,8.58
2019-03-17T05:57:31.257Z,9.35
2019-03-17T06:00:00.548Z,8.25
2019-03-17T06:02:29.642Z,9.80
2019-03-17T06:04:58.410Z,9.50
2019-03-17T06:07:27.453Z,9.20
2019-03-17T06:09:56.258Z,9.70
2019-03-17T06:12:25.406Z,9.13
2019-03-17T06:14:54.501Z,8.97
2019-03-17T06:17:23.391Z,10.23
2019-03-17T06:19:52.133Z,9.37
2019-03-17T06:22:21.827Z,9.60
2019-03-17T06:24:51.026Z,10.00
2019-03-17T06:27:20.202Z,10.47
2019-03-17T06:29:48.926Z,9.60
2019-03-17T06:32:17.793Z,9.97
2019-03-17T06:34:46.548Z,10.30
2019-03-17T06:37:15.643Z,9.50
2019-03-17T06:39:44.414Z,11.03
2019-03-17T06:42:13.203Z,11.77
2019-03-17T06:44:42.239Z,10.87
2019-03-17T06:47:11.107Z,10.90
2019-03-17T06:49:40.525Z,11.30
2019-03-17T06:52:09.343Z,12.37
2019-03-17T06:54:38.212Z,11.37
2019-03-17T06:57:07.462Z,12.50
2019-03-17T06:59:36.404Z,13.63
2019-03-17T07:02:05.274Z,12.43
2019-03-17T07:04:34.647Z,14.37
2019-03-17T07:07:03.612Z,13.97
2019-03-17T07:09:32.442Z,14.00
2019-03-17T07:12:01.333Z,14.60
2019-03-17T07:14:30.243Z,14.37
2019-03-17T07:16:59.123Z,16.03
2019-03-17T07:19:28.967Z,15.83
2019-03-17T07:21:58.323Z,16.40
2019-03-17T07:24:27.795Z,15.30
2019-03-17T07:26:57.436Z,17.20
2019-03-17T07:29:28.375Z,17.13
2019-03-17T07:31:57.237Z,17.97
2019-03-17T07:34:26.070Z,17.27
2019-03-17T07:36:55.110Z,19.80
2019-03-17T07:39:23.982Z,17.93
2019-03-17T07:41:52.832Z,17.57
2019-03-17T07:44:21.962Z,18.53
2019-03-17T07:46:51.266Z,18.00
2019-03-17T07:49:20.233Z,20.07
2019-03-17T07:51:49.311Z,20.00
2019-03-17T07:54:18.122Z,21.50
2019-03-17T07:56:46.986Z,20.03
2019-03-17T07:59:16.178Z,20.07
2019-03-17T08:01:45.097Z,21.27
2019-03-17T08:04:14.360Z,22.37
2019-03-17T08:06:43.285Z,20.90
2019-03-17T08:09:12.531Z,20.50
2019-03-17T08:11:41.381Z,22.23
2019-03-17T08:14:10.500Z,20.93
2019-03-17T08:16:39.302Z,21.80
2019-03-17T08:19:16.745Z,22.20
2019-03-17T08:21:45.915Z,22.70
2019-03-17T08:24:14.903Z,23.17
2019-03-17T08:26:43.798Z,22.00
2019-03-17T08:29:13.932Z,23.07
2019-03-17T08:31:43.713Z,24.10
2019-03-17T08:34:12.490Z,25.40
2019-03-17T08:36:41.256Z,24.90
2019-03-17T08:39:10.172Z,25.10
2019-03-17T08:41:38.935Z,25.23
2019-03-17T08:44:07.786Z,24.50
2019-03-17T08:46:36.667Z,26.43
2019-03-17T08:49:05.824Z,24.73
2019-03-17T08:51:34.842Z,25.90
2019-03-17T08:54:04.241Z,25.07
2019-03-17T08:56:33.009Z,24.07
2019-03-17T08:59:01.936Z,25.13
2019-03-17T09:01:30.854Z,24.30
2019-03-17T09:04:00.090Z,25.10
2019-03-17T09:06:29.009Z,25.80
2019-03-17T09:08:57.912Z,25.67
2019-03-17T09:11:26.772Z,25.23
2019-03-17T09:13:55.585Z,25.40
2019-03-17T09:16:24.311Z,25.00
2019-03-17T09:18:53.220Z,23.87
2019-03-17T09:21:22.033Z,25.80
2019-03-17T09:23:50.970Z,25.63
2019-03-17T09:26:19.808Z,24.37
2019-03-17T09:28:48.639Z,23.43
2019-03-17T09:31:17.468Z,23.47
2019-03-17T09:33:46.327Z,26.13
2019-03-17T09:36:15.164Z,25.37
2019-03-17T09:38:47.495Z,25.33
2019-03-17T09:41:14.883Z,25.30
2019-03-17T09:43:43.975Z,24.43
2019-03-17T09:46:12.799Z,25.40
2019-03-17T09:48:41.703Z,25.37
2019-03-17T09:51:10.986Z,26.13
2019-03-17T09:53:39.879Z,25.20
2019-03-17T09:56:08.649Z,25.60
2019-03-17T09:58:38.083Z,26.57
2019-03-17T10:01:07.082Z,26.90
2019-03-17T10:03:36.235Z,24.97
2019-03-17T10:06:05.392Z,24.00
2019-03-17T10:08:34.275Z,25.63
2019-03-17T10:11:03.707Z,23.43
2019-03-17T10:13:33.058Z,25.27
2019-03-17T10:16:01.930Z,24.40
2019-03-17T10:18:30.874Z,25.67
2019-03-17T10:20:59.707Z,24.20
2019-03-17T10:23:28.661Z,24.37
2019-03-17T10:25:57.903Z,25.17
2019-03-17T10:28:26.710Z,23.60
2019-03-17T10:30:56.072Z,24.40
2019-03-17T10:33:25.167Z,23.50
2019-03-17T10:35:54.039Z,24.67
2019-03-17T10:38:22.935Z,23.87
2019-03-17T10:40:52.397Z,25.30
2019-03-17T10:43:21.315Z,24.93
2019-03-17T10:45:50.287Z,24.23
2019-03-17T10:48:19.207Z,25.20
2019-03-17T10:50:49.848Z,24.13
2019-03-17T10:53:19.256Z,24.70
2019-03-17T10:55:48.236Z,24.90
2019-03-17T10:58:17.131Z,23.00
2019-03-17T11:00:47.080Z,25.20
2019-03-17T11:03:15.931Z,25.70
2019-03-17T11:05:44.951Z,25.40
2019-03-17T11:08:13.791Z,25.40
2019-03-17T11:10:42.633Z,24.10
2019-03-17T11:13:11.429Z,23.73
2019-03-17T11:15:40.612Z,23.40
2019-03-17T11:18:09.438Z,26.67
2019-03-17T11:20:38.357Z,26.13
2019-03-17T11:23:07.224Z,23.10
2019-03-17T11:25:36.144Z,23.70
2019-03-17T11:28:04.901Z,23.40
2019-03-17T11:30:33.715Z,22.30
2019-03-17T11:33:02.838Z,23.90
2019-03-17T11:35:31.724Z,24.00
2019-03-17T11:38:00.543Z,23.80
2019-03-17T11:40:29.412Z,24.90
2019-03-17T11:42:58.460Z,23.60
2019-03-17T11:45:27.309Z,23.40
2019-03-17T11:47:56.556Z,24.33
2019-03-17T11:50:25.450Z,24.40
2019-03-17T11:52:54.320Z,25.87
2019-03-17T11:55:23.366Z,27.50
2019-03-17T11:57:52.863Z,24.97
2019-03-17T12:00:21.823Z,26.10
2019-03-17T12:02:50.646Z,25.43
2019-03-17T12:05:19.587Z,25.57
2019-03-17T12:07:48.731Z,25.47
2019-03-17T12:10:17.597Z,26.40
2019-03-17T12:12:46.618Z,26.67
2019-03-17T12:15:16.100Z,25.20
2019-03-17T12:17:45.124Z,25.43
2019-03-17T12:20:14.361Z,25.70
2019-03-17T12:22:43.384Z,25.30
2019-03-17T12:25:12.858Z,24.83
2019-03-17T12:27:42.452Z,24.63
2019-03-17T12:30:21.624Z,24.60
2019-03-17T12:32:51.010Z,26.77
2019-03-17T12:35:20.275Z,23.30
2019-03-17T12:37:49.288Z,25.07
2019-03-17T12:40:18.192Z,25.47
2019-03-17T12:42:47.288Z,26.63
2019-03-17T12:45:16.727Z,25.03
2019-03-17T12:47:46.116Z,25.23
2019-03-17T12:50:15.093Z,25.33
2019-03-17T12:52:43.965Z,23.80
2019-03-17T12:55:12.881Z,25.50
2019-03-17T12:57:41.904Z,24.83
2019-03-17T13:00:13.349Z,23.60
2019-03-17T13:02:42.231Z,23.80
2019-03-17T13:05:11.482Z,24.07
2019-03-17T13:07:40.464Z,26.10
2019-03-17T13:10:15.822Z,27.17
2019-03-17T13:12:41.978Z,25.67
2019-03-17T13:15:11.350Z,24.00
2019-03-17T13:17:40.361Z,25.30
2019-03-17T13:20:10.374Z,24.07
2019-03-17T13:22:39.448Z,25.20
2019-03-17T13:25:08.924Z,25.33
2019-03-17T13:27:37.956Z,23.40
2019-03-17T13:30:08.294Z,25.17
2019-03-17T13:32:37.214Z,24.03
2019-03-17T13:35:06.641Z,24.27
2019-03-17T13:37:35.897Z,23.67
2019-03-17T13:40:06.131Z,25.20
2019-03-17T13:42:35.968Z,23.40
2019-03-17T13:45:05.262Z,24.17
2019-03-17T13:47:35.216Z,25.93
2019-03-17T13:50:05.983Z,24.60
2019-03-17T13:52:37.200Z,24.60
2019-03-17T13:55:06.508Z,23.67
2019-03-17T13:57:40.239Z,25.00
2019-03-17T14:00:16.080Z,23.30
2019-03-17T14:02:44.994Z,24.90
2019-03-17T14:05:14.340Z,23.50
2019-03-17T14:07:43.548Z,24.10
2019-03-17T14:10:14.759Z,24.60
2019-03-17T14:12:44.036Z,24.30
2019-03-17T14:15:13.728Z,24.60
2019-03-17T14:17:43.232Z,23.47
2019-03-17T14:20:14.431Z,23.50
2019-03-17T14:22:43.237Z,23.70
2019-03-17T14:25:15.217Z,24.30
2019-03-17T14:27:44.327Z,23.20
2019-03-17T14:30:19.390Z,24.00
2019-03-17T14:32:48.238Z,23.80
2019-03-17T14:35:17.111Z,23.57
2019-03-17T14:37:46.040Z,24.00
2019-03-17T14:40:15.063Z,23.40
2019-03-17T14:42:44.336Z,24.87
2019-03-17T14:45:14.212Z,24.77
2019-03-17T14:47:43.076Z,24.40
2019-03-17T14:50:14.287Z,23.47
2019-03-17T14:52:43.215Z,24.73
2019-03-17T14:55:12.236Z,25.10
2019-03-17T14:57:41.430Z,23.67
2019-03-17T15:00:13.023Z,24.43
2019-03-17T15:02:42.136Z,24.73
2019-03-17T15:05:11.461Z,24.10
2019-03-17T15:07:40.531Z,24.00
2019-03-17T15:10:12.086Z,25.47
2019-03-17T15:12:40.888Z,24.33
2019-03-17T15:15:11.279Z,25.07
2019-03-17T15:17:40.235Z,25.03
2019-03-17T15:20:11.307Z,22.97
2019-03-17T15:22:40.165Z,23.40
2019-03-17T15:25:09.744Z,22.53
2019-03-17T15:27:41.580Z,20.40
2019-03-17T15:30:15.247Z,19.40
2019-03-17T15:32:44.397Z,18.40
2019-03-17T15:35:13.425Z,15.90
2019-03-17T15:37:42.296Z,13.13
2019-03-17T15:40:11.455Z,11.77
2019-03-17T15:42:40.279Z,12.17
2019-03-17T15:45:11.446Z,11.30
2019-03-17T15:47:40.456Z,11.23
2019-03-17T15:50:10.787Z,9.43
2019-03-17T15:52:40.127Z,9.60
2019-03-17T15:55:10.149Z,8.80
2019-03-17T15:57:39.086Z,8.33
2019-03-17T16:00:23.657Z,7.60
2019-03-17T16:02:42.129Z,6.90
2019-03-17T16:05:11.172Z,9.27
2019-03-17T16:07:42.576Z,6.23
2019-03-17T16:10:11.995Z,5.70
2019-03-17T16:12:40.973Z,4.90
2019-03-17T16:15:11.125Z,8.10
2019-03-17T16:17:40.023Z,7.90
2019-03-17T16:20:10.494Z,10.10
2019-03-17T16:22:39.346Z,8.10
2019-03-17T16:25:08.945Z,9.93
2019-03-17T16:27:38.043Z,10.37
2019-03-17T16:30:09.534Z,10.53
2019-03-17T16:32:38.338Z,9.50
2019-03-17T16:35:07.338Z,8.40
2019-03-17T16:37:36.474Z,11.00
2019-03-17T16:40:06.435Z,10.10
2019-03-17T16:42:35.387Z,10.30
2019-03-17T16:45:04.995Z,10.27
2019-03-17T16:47:34.200Z,8.90
2019-03-17T16:50:02.993Z,7.80
2019-03-17T16:52:31.744Z,10.90
2019-03-17T16:55:00.528Z,9.30
2019-03-17T16:57:30.679Z,8.47
2019-03-17T16:59:59.479Z,10.30
2019-03-17T17:02:28.702Z,9.80
2019-03-17T17:04:57.437Z,8.97
2019-03-17T17:07:26.271Z,10.10
2019-03-17T17:09:55.108Z,8.60
2019-03-17T17:12:24.260Z,8.87
2019-03-17T17:14:53.380Z,9.20
2019-03-17T17:17:23.154Z,8.27
2019-03-17T17:19:51.943Z,8.43
2019-03-17T17:22:20.698Z,9.63
2019-03-17T17:24:49.550Z,13.17
2019-03-17T17:27:20.499Z,13.57
2019-03-17T17:29:49.012Z,12.97
2019-03-17T17:32:17.826Z,12.57
2019-03-17T17:34:46.687Z,11.30
2019-03-17T17:37:15.560Z,12.57
2019-03-17T17:39:44.270Z,13.27
2019-03-17T17:42:13.056Z,12.50
2019-03-17T17:44:42.095Z,13.00
2019-03-17T17:47:10.949Z,12.97
2019-03-17T17:49:39.807Z,12.37
2019-03-17T17:52:08.992Z,13.30
2019-03-17T17:54:37.893Z,14.40
2019-03-17T17:57:07.141Z,12.77
2019-03-17T17:59:35.941Z,12.53
2019-03-17T18:02:04.823Z,12.80
2019-03-17T18:04:33.691Z,12.40
2019-03-17T18:07:02.787Z,12.73
2019-03-17T18:09:31.600Z,12.50
2019-03-17T18:12:00.661Z,11.70
2019-03-17T18:14:29.687Z,11.90
2019-03-17T18:16:58.556Z,11.80
2019-03-17T18:19:27.757Z,10.90
2019-03-17T18:21:56.679Z,12.80
2019-03-17T18:24:25.585Z,15.20
2019-03-17T18:26:54.515Z,11.97
2019-03-17T18:29:23.296Z,12.40
2019-03-17T18:31:52.816Z,11.67
2019-03-17T18:34:22.070Z,10.90
2019-03-17T18:36:51.112Z,10.90
2019-03-17T18:39:19.819Z,12.43
2019-03-17T18:41:48.746Z,11.77
2019-03-17T18:44:17.604Z,12.40
2019-03-17T18:46:46.540Z,12.60
2019-03-17T18:49:15.348Z,13.40
2019-03-17T18:51:44.243Z,13.27
2019-03-17T18:54:13.093Z,14.00
2019-03-17T18:56:42.339Z,13.53
2019-03-17T18:59:11.916Z,14.13
2019-03-17T19:01:41.172Z,14.90
2019-03-17T19:04:10.181Z,14.20
2019-03-17T19:06:38.947Z,15.00
2019-03-17T19:09:07.787Z,14.47
2019-03-17T19:11:36.818Z,14.50
2019-03-17T19:14:05.703Z,16.97
2019-03-17T19:16:34.555Z,14.27
2019-03-17T19:19:03.336Z,14.50
2019-03-17T19:21:32.467Z,14.73
2019-03-17T19:24:01.374Z,14.60
2019-03-17T19:26:30.177Z,15.40
2019-03-17T19:28:58.972Z,14.70
2019-03-17T19:31:28.106Z,14.37
2019-03-17T19:33:56.956Z,15.07
2019-03-17T19:36:26.011Z,15.40
2019-03-17T19:38:55.020Z,15.33
2019-03-17T19:41:23.820Z,15.70
2019-03-17T19:43:52.637Z,15.53
2019-03-17T19:46:22.727Z,14.73
2019-03-17T19:48:51.560Z,15.93
2019-03-17T19:51:22.522Z,16.60
2019-03-17T19:53:51.764Z,15.40
2019-03-17T19:56:20.800Z,16.40
2019-03-17T19:58:49.977Z,15.07
2019-03-17T20:01:18.904Z,14.83
2019-03-17T20:03:48.168Z,15.80
2019-03-17T20:06:16.985Z,15.10
2019-03-17T20:08:45.764Z,15.03
2019-03-17T20:11:14.819Z,14.90
2019-03-17T20:13:43.777Z,15.20
2019-03-17T20:16:12.749Z,15.07
2019-03-17T20:18:41.622Z,14.20
2019-03-17T20:21:10.468Z,15.27
2019-03-17T20:23:45.651Z,15.80
2019-03-17T20:26:15.142Z,14.70
2019-03-17T20:28:44.426Z,15.73
2019-03-17T20:31:13.276Z,15.43
2019-03-17T20:33:42.016Z,15.70
2019-03-17T20:36:11.109Z,15.10
2019-03-17T20:38:40.000Z,15.10
2019-03-17T20:41:08.791Z,15.20
2019-03-17T20:43:37.633Z,15.53
2019-03-17T20:46:06.443Z,15.63
2019-03-17T20:48:35.321Z,15.30
2019-03-17T20:51:04.066Z,15.03
2019-03-17T20:53:32.863Z,14.90
2019-03-17T20:56:01.673Z,15.70
2019-03-17T20:58:30.441Z,16.47
2019-03-17T21:00:59.506Z,15.30
2019-03-17T21:03:28.462Z,15.90
2019-03-17T21:05:58.116Z,15.80
2019-03-17T21:08:27.075Z,15.40
2019-03-17T21:10:55.952Z,15.90
2019-03-17T21:13:24.725Z,16.30
2019-03-17T21:15:53.610Z,16.07
2019-03-17T21:18:22.469Z,15.23
2019-03-17T21:20:51.659Z,15.70
2019-03-17T21:23:20.591Z,15.20
2019-03-17T21:25:49.314Z,15.90
2019-03-17T21:28:18.133Z,16.00
2019-03-17T21:30:46.920Z,16.00
2019-03-17T21:33:15.993Z,15.67
2019-03-17T21:35:45.076Z,15.67
2019-03-17T21:38:14.208Z,16.70
2019-03-17T21:40:56.446Z,16.30
2019-03-17T21:43:13.953Z,16.10
2019-03-17T21:45:43.039Z,16.43
2019-03-17T21:48:11.878Z,16.50
2019-03-17T21:50:41.244Z,16.50
2019-03-17T21:53:10.002Z,16.80
2019-03-17T21:55:38.876Z,16.50
2019-03-17T21:58:08.578Z,15.70
2019-03-17T22:00:37.523Z,16.83
2019-03-17T22:03:06.383Z,17.17
2019-03-17T22:05:35.196Z,16.30
2019-03-17T22:08:04.062Z,14.67
2019-03-17T22:10:32.883Z,16.27
2019-03-17T22:13:01.733Z,15.73
2019-03-17T22:15:30.554Z,15.23
2019-03-17T22:17:59.334Z,15.50
2019-03-17T22:20:28.482Z,15.40
2019-03-17T22:22:57.319Z,16.17
2019-03-17T22:25:26.126Z,15.97
2019-03-17T22:28:07.454Z,15.00
2019-03-17T22:30:25.688Z,15.50
2019-03-17T22:32:54.454Z,15.40
2019-03-17T22:35:23.469Z,15.23
2019-03-17T22:37:52.228Z,14.87
2019-03-17T22:40:20.996Z,15.00
2019-03-17T22:42:49.919Z,15.23
2019-03-17T22:45:18.934Z,14.87
2019-03-17T22:47:47.771Z,14.70
2019-03-17T22:50:16.859Z,15.33
2019-03-17T22:52:45.745Z,14.03
2019-03-17T22:55:15.324Z,14.23
2019-03-17T22:57:44.230Z,14.63
2019-03-17T23:00:16.181Z,14.80
2019-03-17T23:02:45.043Z,15.30
2019-03-17T23:05:13.989Z,13.77
2019-03-17T23:07:42.793Z,14.90
2019-03-17T23:10:11.790Z,15.50
2019-03-17T23:12:40.663Z,15.50
2019-03-17T23:15:09.904Z,15.07
2019-03-17T23:17:38.760Z,14.00
2019-03-17T23:20:08.234Z,13.47
2019-03-17T23:22:37.290Z,14.23
2019-03-17T23:25:06.545Z,14.10
2019-03-17T23:27:35.432Z,13.97
2019-03-17T23:30:05.054Z,14.87
2019-03-17T23:32:34.000Z,14.50
2019-03-17T23:35:03.175Z,13.00
2019-03-17T23:37:32.208Z,14.00
2019-03-17T23:40:00.961Z,14.50
2019-03-17T23:42:29.715Z,14.57
2019-03-17T23:44:58.519Z,14.33
2019-03-17T23:47:27.306Z,13.77
2019-03-17T23:49:56.102Z,13.83
2019-03-17T23:52:25.060Z,14.20
2019-03-17T23:54:53.863Z,14.60
2019-03-17T23:57:22.587Z,14.00
2019-03-17T23:59:51.443Z,14.03
